Horton, Kentucky
Current Conditions -  °F | °C
As of 1:15 PM on Friday 24 Oct 2014 (Local Time) from K2I0 Reporting Station
Broken Clouds Broken Clouds  
Wind Chill: 67°   Ceiling: 4200
Heat Index: 67°   Visibility: 10mi
Dew Point: 47°   Wind: 0mph
Humidity: 50%   Direction: NA
Pressure: 30.09"   Gusts: NA
Location:  37.3559°N, 86.8747°W
Report Text: K2I0 241815Z AUTO 00000KT 10SM BKN042 19/09 A3009 RMK AO2 T01930086
Loading
Personal Weather Stations






























Interactive Weather Map New forecast layout! Learn more

10-Day Weather Forecast

Advertisements
Track Severe Weather on mobile